sensor_id;sensor_type;location;lat;lon;timestamp;pressure;altitude;pressure_sealevel;temperature;humidity
44926;BME280;30662;51.210;7.656;2023-05-01T00:00:56;151349.44;;;10.20;81.92
44926;BME280;30662;51.210;7.656;2023-05-01T00:03:23;151386.19;;;10.35;81.85
44926;BME280;30662;51.210;7.656;2023-05-01T00:05:49;151355.84;;;10.23;82.72
44926;BME280;30662;51.210;7.656;2023-05-01T00:08:15;151354.56;;;10.23;82.53
44926;BME280;30662;51.210;7.656;2023-05-01T00:10:41;151369.78;;;10.29;82.27
44926;BME280;30662;51.210;7.656;2023-05-01T00:13:07;151390.00;;;10.37;82.47
44926;BME280;30662;51.210;7.656;2023-05-01T00:15:34;151387.50;;;10.36;83.68
44926;BME280;30662;51.210;7.656;2023-05-01T00:18:00;151405.22;;;10.43;82.26
44926;BME280;30662;51.210;7.656;2023-05-01T00:20:30;151397.59;;;10.40;83.54
44926;BME280;30662;51.210;7.656;2023-05-01T00:22:56;151392.53;;;10.38;83.73
44926;BME280;30662;51.210;7.656;2023-05-01T00:25:22;151367.19;;;10.28;83.56
44926;BME280;30662;51.210;7.656;2023-05-01T00:27:48;151387.50;;;10.36;84.14
44926;BME280;30662;51.210;7.656;2023-05-01T00:30:14;151395.06;;;10.39;83.22
44926;BME280;30662;51.210;7.656;2023-05-01T00:32:40;151403.91;;;10.42;84.19
44926;BME280;30662;51.210;7.656;2023-05-01T00:35:06;151401.38;;;10.41;83.81
44926;BME280;30662;51.210;7.656;2023-05-01T00:37:32;151417.84;;;10.48;84.20
44926;BME280;30662;51.210;7.656;2023-05-01T00:39:58;151387.50;;;10.36;84.55
44926;BME280;30662;51.210;7.656;2023-05-01T00:42:24;151420.38;;;10.49;83.32
44926;BME280;30662;51.210;7.656;2023-05-01T00:44:50;151422.88;;;10.50;83.47
44926;BME280;30662;51.210;7.656;2023-05-01T00:47:17;151402.66;;;10.42;84.70
44926;BME280;30662;51.210;7.656;2023-05-01T00:49:44;151369.78;;;10.29;85.19
44926;BME280;30662;51.210;7.656;2023-05-01T00:52:12;151425.47;;;10.51;83.60
44926;BME280;30662;51.210;7.656;2023-05-01T00:54:38;151431.78;;;10.54;81.88
44926;BME280;30662;51.210;7.656;2023-05-01T00:57:05;151425.47;;;10.51;82.39
44926;BME280;30662;51.210;7.656;2023-05-01T00:59:33;151382.41;;;10.34;84.10
44926;BME280;30662;51.210;7.656;2023-05-01T01:01:59;151388.75;;;10.36;84.87
44926;BME280;30662;51.210;7.656;2023-05-01T01:04:26;151373.56;;;10.30;86.56
44926;BME280;30662;51.210;7.656;2023-05-01T01:07:13;151383.66;;;10.34;85.62
44926;BME280;30662;51.210;7.656;2023-05-01T01:10:18;151376.09;;;10.31;85.38
44926;BME280;30662;51.210;7.656;2023-05-01T01:13:13;151395.06;;;10.39;83.20
44926;BME280;30662;51.210;7.656;2023-05-01T01:15:46;151426.72;;;10.52;83.29
44926;BME280;30662;51.210;7.656;2023-05-01T01:18:29;151401.38;;;10.41;84.81
44926;BME280;30662;51.210;7.656;2023-05-01T01:21:22;151402.66;;;10.42;85.18
44926;BME280;30662;51.210;7.656;2023-05-01T01:27:29;151415.31;;;10.47;83.55
44926;BME280;30662;51.210;7.656;2023-05-01T01:33:16;151433.03;;;10.54;83.43
44926;BME280;30662;51.210;7.656;2023-05-01T01:35:45;151436.81;;;10.56;83.31
44926;BME280;30662;51.210;7.656;2023-05-01T01:38:23;151409.00;;;10.44;84.94
44926;BME280;30662;51.210;7.656;2023-05-01T01:40:58;151426.72;;;10.52;85.84
44926;BME280;30662;51.210;7.656;2023-05-01T01:43:32;151459.66;;;10.65;83.42
44926;BME280;30662;51.210;7.656;2023-05-01T01:46:04;151416.56;;;10.47;84.85
44926;BME280;30662;51.210;7.656;2023-05-01T01:48:35;151435.56;;;10.55;84.13
44926;BME280;30662;51.210;7.656;2023-05-01T01:51:07;151410.25;;;10.45;85.51
44926;BME280;30662;51.210;7.656;2023-05-01T01:53:36;151420.38;;;10.49;86.60
44926;BME280;30662;51.210;7.656;2023-05-01T01:56:03;151411.53;;;10.45;86.59
44926;BME280;30662;51.210;7.656;2023-05-01T01:58:31;151425.47;;;10.51;85.66
44926;BME280;30662;51.210;7.656;2023-05-01T02:01:00;151412.78;;;10.46;85.31
44926;BME280;30662;51.210;7.656;2023-05-01T02:03:27;151415.31;;;10.47;86.04
44926;BME280;30662;51.210;7.656;2023-05-01T02:05:55;151403.91;;;10.42;85.95
44926;BME280;30662;51.210;7.656;2023-05-01T02:08:22;151433.03;;;10.54;84.84
44926;BME280;30662;51.210;7.656;2023-05-01T02:10:49;151400.13;;;10.41;86.77
44926;BME280;30662;51.210;7.656;2023-05-01T02:13:16;151421.63;;;10.49;85.21
44926;BME280;30662;51.210;7.656;2023-05-01T02:15:44;151419.09;;;10.48;86.39
44926;BME280;30662;51.210;7.656;2023-05-01T02:18:11;151421.63;;;10.49;84.79
44926;BME280;30662;51.210;7.656;2023-05-01T02:20:37;151428.00;;;10.52;85.37
44926;BME280;30662;51.210;7.656;2023-05-01T02:23:05;151428.00;;;10.52;86.42
44926;BME280;30662;51.210;7.656;2023-05-01T02:25:33;151443.19;;;10.58;85.93
44926;BME280;30662;51.210;7.656;2023-05-01T02:28:07;151438.09;;;10.56;85.98
44926;BME280;30662;51.210;7.656;2023-05-01T02:30:35;151429.25;;;10.53;85.36
44926;BME280;30662;51.210;7.656;2023-05-01T02:33:01;151420.38;;;10.49;85.89
44926;BME280;30662;51.210;7.656;2023-05-01T02:35:27;151424.19;;;10.51;86.97
44926;BME280;30662;51.210;7.656;2023-05-01T02:37:53;151414.06;;;10.46;85.92
44926;BME280;30662;51.210;7.656;2023-05-01T02:40:19;151407.75;;;10.44;87.34
44926;BME280;30662;51.210;7.656;2023-05-01T02:42:45;151417.84;;;10.48;88.02
44926;BME280;30662;51.210;7.656;2023-05-01T02:45:19;151420.38;;;10.49;88.71
44926;BME280;30662;51.210;7.656;2023-05-01T02:47:49;151428.00;;;10.52;88.42
44926;BME280;30662;51.210;7.656;2023-05-01T02:50:16;151425.47;;;10.51;87.04
44926;BME280;30662;51.210;7.656;2023-05-01T02:52:43;151421.63;;;10.49;86.90
44926;BME280;30662;51.210;7.656;2023-05-01T02:55:10;151421.63;;;10.49;87.74
44926;BME280;30662;51.210;7.656;2023-05-01T02:57:36;151419.09;;;10.48;88.35
44926;BME280;30662;51.210;7.656;2023-05-01T03:00:02;151411.53;;;10.45;88.65
44926;BME280;30662;51.210;7.656;2023-05-01T03:02:29;151420.38;;;10.49;89.23
44926;BME280;30662;51.210;7.656;2023-05-01T03:04:54;151402.66;;;10.42;89.48
44926;BME280;30662;51.210;7.656;2023-05-01T03:07:21;151384.91;;;10.35;90.20
44926;BME280;30662;51.210;7.656;2023-05-01T03:09:47;151403.91;;;10.42;89.66
44926;BME280;30662;51.210;7.656;2023-05-01T03:12:13;151410.25;;;10.45;88.25
44926;BME280;30662;51.210;7.656;2023-05-01T03:14:39;151409.00;;;10.44;87.93
44926;BME280;30662;51.210;7.656;2023-05-01T03:17:05;151415.31;;;10.47;88.84
44926;BME280;30662;51.210;7.656;2023-05-01T03:19:30;151421.63;;;10.49;87.75
44926;BME280;30662;51.210;7.656;2023-05-01T03:21:56;151434.31;;;10.55;88.51
44926;BME280;30662;51.210;7.656;2023-05-01T03:24:23;151439.34;;;10.57;87.10
44926;BME280;30662;51.210;7.656;2023-05-01T03:26:48;151428.00;;;10.52;88.89
44926;BME280;30662;51.210;7.656;2023-05-01T03:29:14;151433.03;;;10.54;88.11
44926;BME280;30662;51.210;7.656;2023-05-01T03:31:43;151430.50;;;10.53;88.08
44926;BME280;30662;51.210;7.656;2023-05-01T03:34:09;151415.31;;;10.47;89.98
44926;BME280;30662;51.210;7.656;2023-05-01T03:36:35;151381.13;;;10.33;88.50
44926;BME280;30662;51.210;7.656;2023-05-01T03:39:01;151397.59;;;10.40;88.55
44926;BME280;30662;51.210;7.656;2023-05-01T03:41:27;151393.81;;;10.38;86.53
44926;BME280;30662;51.210;7.656;2023-05-01T03:43:53;151379.88;;;10.33;86.47
44926;BME280;30662;51.210;7.656;2023-05-01T03:46:18;151395.06;;;10.39;87.80
44926;BME280;30662;51.210;7.656;2023-05-01T03:48:44;151421.63;;;10.49;86.05
44926;BME280;30662;51.210;7.656;2023-05-01T03:51:10;151424.19;;;10.51;83.57
44926;BME280;30662;51.210;7.656;2023-05-01T03:53:36;151417.84;;;10.48;83.85
44926;BME280;30662;51.210;7.656;2023-05-01T03:56:02;151415.31;;;10.47;83.73
44926;BME280;30662;51.210;7.656;2023-05-01T03:58:29;151414.06;;;10.46;83.55
44926;BME280;30662;51.210;7.656;2023-05-01T04:00:55;151415.31;;;10.47;83.27
44926;BME280;30662;51.210;7.656;2023-05-01T04:03:23;151417.84;;;10.48;82.51
44926;BME280;30662;51.210;7.656;2023-05-01T04:05:49;151421.63;;;10.49;82.65
44926;BME280;30662;51.210;7.656;2023-05-01T04:08:14;151400.13;;;10.41;84.76
44926;BME280;30662;51.210;7.656;2023-05-01T04:10:40;151403.91;;;10.42;85.32
44926;BME280;30662;51.210;7.656;2023-05-01T04:13:06;151378.59;;;10.32;85.00
44926;BME280;30662;51.210;7.656;2023-05-01T04:15:32;151407.75;;;10.44;84.67
44926;BME280;30662;51.210;7.656;2023-05-01T04:17:58;151410.25;;;10.45;81.87
44926;BME280;30662;51.210;7.656;2023-05-01T04:20:24;151400.13;;;10.41;82.31
44926;BME280;30662;51.210;7.656;2023-05-01T04:22:50;151421.63;;;10.49;81.85
44926;BME280;30662;51.210;7.656;2023-05-01T04:25:16;151409.00;;;10.44;81.69
44926;BME280;30662;51.210;7.656;2023-05-01T04:27:42;151407.75;;;10.44;81.92
44926;BME280;30662;51.210;7.656;2023-05-01T04:30:08;151393.81;;;10.38;79.50
44926;BME280;30662;51.210;7.656;2023-05-01T04:32:34;151419.09;;;10.48;78.98
44926;BME280;30662;51.210;7.656;2023-05-01T04:35:01;151415.31;;;10.47;78.46
44926;BME280;30662;51.210;7.656;2023-05-01T04:37:26;151421.63;;;10.49;78.76
44926;BME280;30662;51.210;7.656;2023-05-01T04:39:52;151420.38;;;10.49;78.68
44926;BME280;30662;51.210;7.656;2023-05-01T04:42:20;151421.63;;;10.49;77.70
44926;BME280;30662;51.210;7.656;2023-05-01T04:44:46;151411.53;;;10.45;77.59
44926;BME280;30662;51.210;7.656;2023-05-01T04:47:12;151430.50;;;10.53;77.59
44926;BME280;30662;51.210;7.656;2023-05-01T04:49:38;151426.72;;;10.52;77.50
44926;BME280;30662;51.210;7.656;2023-05-01T04:52:04;151448.25;;;10.60;77.30
44926;BME280;30662;51.210;7.656;2023-05-01T04:54:30;151441.91;;;10.58;77.78
44926;BME280;30662;51.210;7.656;2023-05-01T04:56:56;151473.53;;;10.70;76.62
44926;BME280;30662;51.210;7.656;2023-05-01T04:59:22;151457.06;;;10.64;76.94
44926;BME280;30662;51.210;7.656;2023-05-01T05:01:47;151473.53;;;10.70;76.50
44926;BME280;30662;51.210;7.656;2023-05-01T05:04:13;151460.91;;;10.65;76.37
44926;BME280;30662;51.210;7.656;2023-05-01T05:06:39;151448.25;;;10.60;77.19
44926;BME280;30662;51.210;7.656;2023-05-01T05:09:05;151428.00;;;10.52;79.07
44926;BME280;30662;51.210;7.656;2023-05-01T05:11:31;151439.34;;;10.57;78.05
44926;BME280;30662;51.210;7.656;2023-05-01T05:13:57;151467.22;;;10.68;77.62
44926;BME280;30662;51.210;7.656;2023-05-01T05:16:23;151452.03;;;10.62;76.70
44926;BME280;30662;51.210;7.656;2023-05-01T05:18:49;151454.53;;;10.63;77.15
44926;BME280;30662;51.210;7.656;2023-05-01T05:21:15;151459.66;;;10.65;77.45
44926;BME280;30662;51.210;7.656;2023-05-01T05:23:41;151479.91;;;10.73;76.03
44926;BME280;30662;51.210;7.656;2023-05-01T05:26:07;151491.25;;;10.77;75.98
44926;BME280;30662;51.210;7.656;2023-05-01T05:28:33;151482.41;;;10.74;76.77
44926;BME280;30662;51.210;7.656;2023-05-01T05:30:58;151483.69;;;10.74;76.58
44926;BME280;30662;51.210;7.656;2023-05-01T05:33:24;151491.25;;;10.77;76.74
44926;BME280;30662;51.210;7.656;2023-05-01T05:35:51;151516.63;;;10.88;76.09
44926;BME280;30662;51.210;7.656;2023-05-01T05:38:17;151517.88;;;10.88;76.42
44926;BME280;30662;51.210;7.656;2023-05-01T05:40:43;151512.78;;;10.86;75.88
44926;BME280;30662;51.210;7.656;2023-05-01T05:43:09;151549.53;;;11.01;75.39
44926;BME280;30662;51.210;7.656;2023-05-01T05:45:36;151507.72;;;10.84;76.13
44926;BME280;30662;51.210;7.656;2023-05-01T05:48:02;151517.88;;;10.88;75.49
44926;BME280;30662;51.210;7.656;2023-05-01T05:50:28;151506.47;;;10.84;75.62
44926;BME280;30662;51.210;7.656;2023-05-01T05:52:55;151539.41;;;10.97;76.29
44926;BME280;30662;51.210;7.656;2023-05-01T05:55:21;151530.50;;;10.93;75.37
44926;BME280;30662;51.210;7.656;2023-05-01T05:57:47;151511.50;;;10.86;75.16
44926;BME280;30662;51.210;7.656;2023-05-01T06:00:13;151555.84;;;11.03;75.05
44926;BME280;30662;51.210;7.656;2023-05-01T06:02:40;151590.06;;;11.17;73.76
44926;BME280;30662;51.210;7.656;2023-05-01T06:05:06;151558.38;;;11.04;74.15
44926;BME280;30662;51.210;7.656;2023-05-01T06:07:32;151606.53;;;11.24;72.42
44926;BME280;30662;51.210;7.656;2023-05-01T06:09:58;151581.16;;;11.14;74.64
44926;BME280;30662;51.210;7.656;2023-05-01T06:12:30;151550.81;;;11.01;74.81
44926;BME280;30662;51.210;7.656;2023-05-01T06:14:57;151568.53;;;11.09;75.15
44926;BME280;30662;51.210;7.656;2023-05-01T06:17:23;151558.38;;;11.04;74.98
44926;BME280;30662;51.210;7.656;2023-05-01T06:19:50;151552.06;;;11.02;74.75
44926;BME280;30662;51.210;7.656;2023-05-01T06:22:18;151564.69;;;11.07;74.47
44926;BME280;30662;51.210;7.656;2023-05-01T06:24:44;151549.53;;;11.01;75.54
44926;BME280;30662;51.210;7.656;2023-05-01T06:27:10;151600.16;;;11.21;73.65
44926;BME280;30662;51.210;7.656;2023-05-01T06:29:36;151578.66;;;11.13;74.94
44926;BME280;30662;51.210;7.656;2023-05-01T06:32:02;151615.38;;;11.27;73.52
44926;BME280;30662;51.210;7.656;2023-05-01T06:34:29;151653.38;;;11.43;72.43
44926;BME280;30662;51.210;7.656;2023-05-01T06:36:55;151614.09;;;11.27;72.05
44926;BME280;30662;51.210;7.656;2023-05-01T06:39:21;151652.09;;;11.42;71.99
44926;BME280;30662;51.210;7.656;2023-05-01T06:41:47;151644.53;;;11.39;72.91
44926;BME280;30662;51.210;7.656;2023-05-01T06:44:14;151690.09;;;11.57;72.58
44926;BME280;30662;51.210;7.656;2023-05-01T06:46:40;151635.63;;;11.36;73.81
44926;BME280;30662;51.210;7.656;2023-05-01T06:49:06;151640.72;;;11.38;72.79
44926;BME280;30662;51.210;7.656;2023-05-01T06:51:32;151657.16;;;11.44;72.41
44926;BME280;30662;51.210;7.656;2023-05-01T06:53:58;151674.91;;;11.51;72.05
44926;BME280;30662;51.210;7.656;2023-05-01T06:56:24;151701.53;;;11.62;71.68
44926;BME280;30662;51.210;7.656;2023-05-01T06:58:49;151735.72;;;11.76;71.62
44926;BME280;30662;51.210;7.656;2023-05-01T07:01:15;151753.53;;;11.83;70.73
44926;BME280;30662;51.210;7.656;2023-05-01T07:03:42;151770.00;;;11.90;71.59
44926;BME280;30662;51.210;7.656;2023-05-01T07:06:08;151782.63;;;11.95;71.08
44926;BME280;30662;51.210;7.656;2023-05-01T07:08:34;151739.53;;;11.77;70.14
44926;BME280;30662;51.210;7.656;2023-05-01T07:11:00;151780.09;;;11.94;70.20
44926;BME280;30662;51.210;7.656;2023-05-01T07:13:26;151778.84;;;11.93;70.02
44926;BME280;30662;51.210;7.656;2023-05-01T07:15:52;151795.31;;;12.00;69.93
44926;BME280;30662;51.210;7.656;2023-05-01T07:18:20;151856.19;;;12.24;68.46
44926;BME280;30662;51.210;7.656;2023-05-01T07:20:45;151846.03;;;12.20;69.07
44926;BME280;30662;51.210;7.656;2023-05-01T07:23:11;151810.53;;;12.06;68.27
44926;BME280;30662;51.210;7.656;2023-05-01T07:25:37;151867.56;;;12.29;67.92
44926;BME280;30662;51.210;7.656;2023-05-01T07:28:06;151861.25;;;12.26;69.34
44926;BME280;30662;51.210;7.656;2023-05-01T07:30:34;151957.56;;;12.65;67.53
44926;BME280;30662;51.210;7.656;2023-05-01T07:33:01;151989.28;;;12.78;65.71
44926;BME280;30662;51.210;7.656;2023-05-01T07:35:27;151976.59;;;12.73;66.56
44926;BME280;30662;51.210;7.656;2023-05-01T07:37:53;151975.31;;;12.72;65.44
44926;BME280;30662;51.210;7.656;2023-05-01T07:40:19;152015.88;;;12.88;65.60
44926;BME280;30662;51.210;7.656;2023-05-01T07:42:45;152021.00;;;12.90;65.53
44926;BME280;30662;51.210;7.656;2023-05-01T07:45:11;152034.91;;;12.96;65.71
44926;BME280;30662;51.210;7.656;2023-05-01T07:47:37;152055.22;;;13.04;64.77
44926;BME280;30662;51.210;7.656;2023-05-01T07:50:04;152012.09;;;12.87;65.53
44926;BME280;30662;51.210;7.656;2023-05-01T07:52:34;152032.38;;;12.95;64.53
44926;BME280;30662;51.210;7.656;2023-05-01T07:55:00;152105.97;;;13.24;63.79
44926;BME280;30662;51.210;7.656;2023-05-01T07:57:26;152036.22;;;12.96;63.70
44926;BME280;30662;51.210;7.656;2023-05-01T07:59:55;152055.22;;;13.04;63.04
44926;BME280;30662;51.210;7.656;2023-05-01T08:02:21;152094.59;;;13.20;62.32
44926;BME280;30662;51.210;7.656;2023-05-01T08:04:47;152138.97;;;13.38;62.65
44926;BME280;30662;51.210;7.656;2023-05-01T08:07:14;152177.00;;;13.53;61.56
44926;BME280;30662;51.210;7.656;2023-05-01T08:09:39;152197.31;;;13.61;59.88
44926;BME280;30662;51.210;7.656;2023-05-01T08:12:05;152239.19;;;13.78;60.70
44926;BME280;30662;51.210;7.656;2023-05-01T08:14:32;152296.28;;;14.01;59.91
44926;BME280;30662;51.210;7.656;2023-05-01T08:16:58;152368.63;;;14.30;59.30
44926;BME280;30662;51.210;7.656;2023-05-01T08:19:24;152387.69;;;14.38;58.41
44926;BME280;30662;51.210;7.656;2023-05-01T08:21:52;152359.72;;;14.26;57.79
44926;BME280;30662;51.210;7.656;2023-05-01T08:24:18;152443.56;;;14.60;59.73
44926;BME280;30662;51.210;7.656;2023-05-01T08:26:44;152457.56;;;14.66;56.08
44926;BME280;30662;51.210;7.656;2023-05-01T08:29:10;152416.94;;;14.49;56.10
44926;BME280;30662;51.210;7.656;2023-05-01T08:31:36;152434.72;;;14.56;56.39
44926;BME280;30662;51.210;7.656;2023-05-01T08:34:04;152444.84;;;14.60;56.03
44926;BME280;30662;51.210;7.656;2023-05-01T08:36:30;152484.19;;;14.76;56.08
44926;BME280;30662;51.210;7.656;2023-05-01T08:38:57;152507.09;;;14.85;55.14
44926;BME280;30662;51.210;7.656;2023-05-01T08:41:24;152508.34;;;14.86;55.25
44926;BME280;30662;51.210;7.656;2023-05-01T08:43:52;152494.38;;;14.80;54.78
44926;BME280;30662;51.210;7.656;2023-05-01T08:46:38;152465.16;;;14.69;55.00
44926;BME280;30662;51.210;7.656;2023-05-01T08:49:12;152496.91;;;14.81;55.80
44926;BME280;30662;51.210;7.656;2023-05-01T08:51:41;152562.94;;;15.08;54.72
44926;BME280;30662;51.210;7.656;2023-05-01T08:54:08;152613.75;;;15.28;56.49
44926;BME280;30662;51.210;7.656;2023-05-01T08:56:35;152655.66;;;15.45;54.95
44926;BME280;30662;51.210;7.656;2023-05-01T08:59:03;152684.84;;;15.57;53.57
44926;BME280;30662;51.210;7.656;2023-05-01T09:01:32;152673.44;;;15.52;55.67
44926;BME280;30662;51.210;7.656;2023-05-01T09:04:01;152691.22;;;15.59;55.41
44926;BME280;30662;51.210;7.656;2023-05-01T09:06:27;152712.88;;;15.68;54.91
44926;BME280;30662;51.210;7.656;2023-05-01T09:08:54;152724.31;;;15.73;54.49
44926;BME280;30662;51.210;7.656;2023-05-01T09:11:21;152644.22;;;15.40;54.99
44926;BME280;30662;51.210;7.656;2023-05-01T09:13:47;152772.56;;;15.92;55.43
44926;BME280;30662;51.210;7.656;2023-05-01T09:16:13;152786.56;;;15.97;54.41
44926;BME280;30662;51.210;7.656;2023-05-01T09:18:40;152805.63;;;16.05;53.62
44926;BME280;30662;51.210;7.656;2023-05-01T09:21:06;152909.84;;;16.47;53.17
44926;BME280;30662;51.210;7.656;2023-05-01T09:23:32;152912.38;;;16.48;53.79
44926;BME280;30662;51.210;7.656;2023-05-01T09:26:03;152888.25;;;16.38;51.79
44926;BME280;30662;51.210;7.656;2023-05-01T09:28:46;152829.75;;;16.15;52.39
44926;BME280;30662;51.210;7.656;2023-05-01T09:31:24;152782.75;;;15.96;52.08
44926;BME280;30662;51.210;7.656;2023-05-01T09:33:56;152798.00;;;16.02;52.61
44926;BME280;30662;51.210;7.656;2023-05-01T09:36:25;152871.72;;;16.32;51.64
44926;BME280;30662;51.210;7.656;2023-05-01T09:38:51;152899.66;;;16.43;50.57
44926;BME280;30662;51.210;7.656;2023-05-01T09:41:17;152864.06;;;16.28;48.20
44926;BME280;30662;51.210;7.656;2023-05-01T09:43:53;152869.19;;;16.31;49.83
44926;BME280;30662;51.210;7.656;2023-05-01T09:46:20;152959.44;;;16.67;50.37
44926;BME280;30662;51.210;7.656;2023-05-01T09:48:55;152969.63;;;16.71;48.69
44926;BME280;30662;51.210;7.656;2023-05-01T09:51:22;153054.84;;;17.05;49.19
44926;BME280;30662;51.210;7.656;2023-05-01T09:53:48;153128.59;;;17.34;48.65
44926;BME280;30662;51.210;7.656;2023-05-01T09:56:14;153082.78;;;17.16;48.14
44926;BME280;30662;51.210;7.656;2023-05-01T09:58:40;153061.19;;;17.07;48.75
44926;BME280;30662;51.210;7.656;2023-05-01T10:01:06;153081.53;;;17.16;49.56
44926;BME280;30662;51.210;7.656;2023-05-01T10:03:33;153066.28;;;17.09;48.30
44926;BME280;30662;51.210;7.656;2023-05-01T10:05:59;153159.13;;;17.47;48.36
44926;BME280;30662;51.210;7.656;2023-05-01T10:08:47;153100.59;;;17.23;47.49
44926;BME280;30662;51.210;7.656;2023-05-01T10:11:13;153122.25;;;17.32;47.07
44926;BME280;30662;51.210;7.656;2023-05-01T10:13:39;153166.75;;;17.50;46.04
44926;BME280;30662;51.210;7.656;2023-05-01T10:16:06;153173.09;;;17.52;46.07
44926;BME280;30662;51.210;7.656;2023-05-01T10:18:34;153141.34;;;17.40;44.98
44926;BME280;30662;51.210;7.656;2023-05-01T10:21:00;153015.44;;;16.89;46.28
44926;BME280;30662;51.210;7.656;2023-05-01T10:23:26;153064.97;;;17.09;46.22
44926;BME280;30662;51.210;7.656;2023-05-01T10:25:52;153103.19;;;17.24;44.68
44926;BME280;30662;51.210;7.656;2023-05-01T10:28:19;153196.03;;;17.61;44.81
44926;BME280;30662;51.210;7.656;2023-05-01T10:30:47;153283.88;;;17.97;43.64
44926;BME280;30662;51.210;7.656;2023-05-01T10:33:14;153269.84;;;17.91;43.93
44926;BME280;30662;51.210;7.656;2023-05-01T10:35:44;153286.41;;;17.98;42.59
44926;BME280;30662;51.210;7.656;2023-05-01T10:38:22;153399.66;;;18.43;43.05
44926;BME280;30662;51.210;7.656;2023-05-01T10:40:50;153488.81;;;18.79;43.51
44926;BME280;30662;51.210;7.656;2023-05-01T10:43:21;153434.03;;;18.57;42.49
44926;BME280;30662;51.210;7.656;2023-05-01T10:45:51;153446.78;;;18.62;42.26
44926;BME280;30662;51.210;7.656;2023-05-01T10:51:19;153315.63;;;18.09;42.91
44926;BME280;30662;51.210;7.656;2023-05-01T10:53:47;153287.66;;;17.98;42.03
44926;BME280;30662;51.210;7.656;2023-05-01T11:01:29;152991.25;;;16.79;42.73
44926;BME280;30662;51.210;7.656;2023-05-01T11:04:04;152993.81;;;16.80;43.56
44926;BME280;30662;51.210;7.656;2023-05-01T11:06:33;153053.56;;;17.04;42.56
44926;BME280;30662;51.210;7.656;2023-05-01T11:09:00;153034.50;;;16.97;42.26
44926;BME280;30662;51.210;7.656;2023-05-01T11:14:04;153117.13;;;17.30;41.96
44926;BME280;30662;51.210;7.656;2023-05-01T11:19:03;153216.38;;;17.70;39.92
44926;BME280;30662;51.210;7.656;2023-05-01T11:21:29;153229.16;;;17.75;41.49
44926;BME280;30662;51.210;7.656;2023-05-01T11:24:05;153268.59;;;17.90;39.96
44926;BME280;30662;51.210;7.656;2023-05-01T11:26:31;153183.28;;;17.56;40.01
44926;BME280;30662;51.210;7.656;2023-05-01T11:28:59;153216.38;;;17.70;39.31
44926;BME280;30662;51.210;7.656;2023-05-01T11:31:25;153240.56;;;17.79;40.41
44926;BME280;30662;51.210;7.656;2023-05-01T11:33:54;153353.81;;;18.25;41.95
44926;BME280;30662;51.210;7.656;2023-05-01T11:36:20;153488.81;;;18.79;40.05
44926;BME280;30662;51.210;7.656;2023-05-01T11:38:56;153450.56;;;18.63;40.07
44926;BME280;30662;51.210;7.656;2023-05-01T11:41:24;153372.91;;;18.32;40.92
44926;BME280;30662;51.210;7.656;2023-05-01T11:43:56;153444.19;;;18.61;38.41
44926;BME280;30662;51.210;7.656;2023-05-01T11:46:30;153472.25;;;18.72;38.83
44926;BME280;30662;51.210;7.656;2023-05-01T11:49:00;153514.25;;;18.89;39.92
44926;BME280;30662;51.210;7.656;2023-05-01T11:51:29;153640.31;;;19.39;39.53
44926;BME280;30662;51.210;7.656;2023-05-01T11:54:16;153541.00;;;18.99;38.97
44926;BME280;30662;51.210;7.656;2023-05-01T11:56:42;153478.59;;;18.74;39.80
44926;BME280;30662;51.210;7.656;2023-05-01T11:59:10;153546.09;;;19.01;39.18
44926;BME280;30662;51.210;7.656;2023-05-01T12:01:39;153478.59;;;18.74;39.14
44926;BME280;30662;51.210;7.656;2023-05-01T12:04:06;153476.06;;;18.73;39.74
44926;BME280;30662;51.210;7.656;2023-05-01T12:06:40;153450.56;;;18.63;38.45
44926;BME280;30662;51.210;7.656;2023-05-01T12:09:14;153385.63;;;18.37;39.89
44926;BME280;30662;51.210;7.656;2023-05-01T12:11:42;153294.03;;;18.01;39.34
44926;BME280;30662;51.210;7.656;2023-05-01T12:14:09;153273.66;;;17.92;41.56
44926;BME280;30662;51.210;7.656;2023-05-01T12:16:36;153259.66;;;17.87;40.68
44926;BME280;30662;51.210;7.656;2023-05-01T12:19:05;153141.34;;;17.40;40.43
44926;BME280;30662;51.210;7.656;2023-05-01T12:21:31;153127.31;;;17.34;41.43
44926;BME280;30662;51.210;7.656;2023-05-01T12:24:08;153077.72;;;17.14;40.95
44926;BME280;30662;51.210;7.656;2023-05-01T12:26:35;153150.22;;;17.43;40.87
44926;BME280;30662;51.210;7.656;2023-05-01T12:29:04;153147.66;;;17.42;41.49
44926;BME280;30662;51.210;7.656;2023-05-01T12:31:31;153161.66;;;17.48;41.97
44926;BME280;30662;51.210;7.656;2023-05-01T12:34:02;153064.97;;;17.09;42.42
44926;BME280;30662;51.210;7.656;2023-05-01T12:36:31;152998.91;;;16.83;42.63
44926;BME280;30662;51.210;7.656;2023-05-01T12:39:00;152953.06;;;16.64;42.92
44926;BME280;30662;51.210;7.656;2023-05-01T12:41:34;152983.63;;;16.76;43.79
44926;BME280;30662;51.210;7.656;2023-05-01T12:44:01;153003.97;;;16.85;43.00
44926;BME280;30662;51.210;7.656;2023-05-01T12:46:28;153043.38;;;17.00;43.63
44926;BME280;30662;51.210;7.656;2023-05-01T12:48:54;153038.31;;;16.98;43.63
44926;BME280;30662;51.210;7.656;2023-05-01T12:51:20;153009.03;;;16.87;44.05
44926;BME280;30662;51.210;7.656;2023-05-01T12:53:47;153063.72;;;17.08;44.34
44926;BME280;30662;51.210;7.656;2023-05-01T12:56:24;153073.91;;;17.13;43.99
44926;BME280;30662;51.210;7.656;2023-05-01T12:58:51;153112.06;;;17.28;43.12
44926;BME280;30662;51.210;7.656;2023-05-01T13:01:28;153123.53;;;17.32;42.56
44926;BME280;30662;51.210;7.656;2023-05-01T13:03:54;153202.38;;;17.64;42.36
44926;BME280;30662;51.210;7.656;2023-05-01T13:06:30;153179.47;;;17.55;41.60
44926;BME280;30662;51.210;7.656;2023-05-01T13:09:07;153304.22;;;18.05;40.66
44926;BME280;30662;51.210;7.656;2023-05-01T13:11:36;153367.81;;;18.30;38.97
44926;BME280;30662;51.210;7.656;2023-05-01T13:14:07;153333.47;;;18.16;36.41